Time;durP1;ratioP1;P1;durP2;ratioP2;P2;SDS_P1;SDS_P2;PMS_P1;PMS_P2;Temp;Humidity;BMP_temperature;BMP_pressure;BME280_temperature;BME280_humidity;BME280_pressure;Samples;Min_cycle;Max_cycle;Signal;HPM_P1;HPM_P2
2024/03/07 00:02:17;;;;;;;25.17;16.20;;;9.60;60.90;11.40;102411.00;;;;5009119;28;20205;-75
2024/03/07 00:04:44;;;;;;;26.25;16.85;;;9.60;61.00;11.30;102414.00;;;;5007361;28;20724;-75
2024/03/07 00:07:11;;;;;;;24.30;15.38;;;9.60;61.10;11.30;102415.00;;;;5014563;28;20824;-74
2024/03/07 00:09:39;;;;;;;24.25;15.90;;;9.60;61.10;11.30;102420.00;;;;5014883;28;20220;-76
2024/03/07 00:12:09;;;;;;;24.60;16.67;;;9.60;61.20;11.30;102415.00;;;;5015094;28;20204;-76
2024/03/07 00:14:36;;;;;;;26.83;16.73;;;9.60;61.20;11.30;102416.00;;;;5005118;28;20221;-75
2024/03/07 00:17:03;;;;;;;24.00;15.93;;;9.50;61.20;11.30;102418.00;;;;5015303;28;20296;-76
2024/03/07 00:19:31;;;;;;;25.33;16.50;;;9.50;61.20;11.20;102422.00;;;;5013521;28;20284;-75
2024/03/07 00:21:58;;;;;;;25.98;17.15;;;9.50;61.30;11.20;102419.00;;;;5010926;28;20193;-76
2024/03/07 00:24:27;;;;;;;25.60;16.42;;;9.50;61.30;11.20;102421.00;;;;5013421;28;20280;-76
2024/03/07 00:26:54;;;;;;;24.17;14.73;;;9.50;61.40;11.20;102424.00;;;;5012563;28;20283;-76
2024/03/07 00:29:23;;;;;;;23.27;15.35;;;9.50;61.30;11.20;102427.00;;;;5014580;28;20312;-74
2024/03/07 00:31:51;;;;;;;26.92;15.55;;;9.50;61.30;11.20;102425.00;;;;5013261;28;20197;-75
2024/03/07 00:34:19;;;;;;;22.13;15.10;;;9.40;61.30;11.20;102423.00;;;;5023247;28;20209;-76
2024/03/07 00:36:47;;;;;;;24.88;15.63;;;9.40;61.30;11.10;102421.00;;;;5014061;28;20200;-76
2024/03/07 00:39:14;;;;;;;25.25;15.57;;;9.40;61.20;11.10;102411.00;;;;5014624;28;20276;-75
2024/03/07 00:41:42;;;;;;;24.80;17.05;;;9.40;61.10;11.10;102415.00;;;;5012248;28;20240;-76
2024/03/07 00:44:09;;;;;;;24.83;16.75;;;9.30;61.20;11.10;102414.00;;;;5014079;28;20303;-76
2024/03/07 00:46:38;;;;;;;24.33;15.77;;;9.40;61.30;11.00;102417.00;;;;5013862;28;20195;-76
2024/03/07 00:49:05;;;;;;;25.58;16.05;;;9.30;61.20;11.00;102418.00;;;;5014342;28;20238;-76
2024/03/07 00:51:32;;;;;;;27.67;17.10;;;9.30;61.30;11.00;102417.00;;;;5011247;28;20193;-73
2024/03/07 00:53:59;;;;;;;26.63;16.13;;;9.30;61.30;11.00;102417.00;;;;5014277;28;20203;-75
2024/03/07 00:56:28;;;;;;;25.80;16.98;;;9.30;61.40;11.00;102421.00;;;;5014135;28;20212;-76
2024/03/07 00:58:56;;;;;;;26.83;16.98;;;9.20;61.40;11.00;102414.00;;;;5013276;28;20678;-74
2024/03/07 01:01:23;;;;;;;25.10;15.90;;;9.20;61.50;10.90;102419.00;;;;5013507;28;20205;-76
2024/03/07 01:03:52;;;;;;;26.73;15.77;;;9.20;61.50;10.90;102411.00;;;;5013714;28;20199;-76
2024/03/07 01:06:20;;;;;;;26.05;15.77;;;9.20;61.60;10.90;102408.00;;;;5014430;28;20201;-75
2024/03/07 01:08:47;;;;;;;25.52;17.05;;;9.20;61.70;10.90;102407.00;;;;5014776;28;20229;-77
2024/03/07 01:11:14;;;;;;;24.60;16.50;;;9.20;61.70;10.90;102409.00;;;;5013267;28;20192;-76
2024/03/07 01:13:41;;;;;;;28.60;17.75;;;9.20;61.80;10.90;102411.00;;;;5012248;28;20288;-75
2024/03/07 01:16:09;;;;;;;26.60;16.33;;;9.10;61.70;10.80;102413.00;;;;5014160;28;20316;-75
2024/03/07 01:18:37;;;;;;;27.33;17.02;;;9.10;61.70;10.80;102410.00;;;;5013580;28;20189;-76
2024/03/07 01:21:08;;;;;;;29.25;17.90;;;9.10;61.70;10.80;102401.00;;;;5012250;28;20287;-75
2024/03/07 01:23:35;;;;;;;24.15;15.63;;;9.00;61.80;10.80;102411.00;;;;5011226;28;20288;-75
2024/03/07 01:26:03;;;;;;;23.90;16.13;;;9.10;61.80;10.80;102409.00;;;;5009644;28;20675;-76
2024/03/07 01:28:31;;;;;;;27.30;17.58;;;9.00;61.90;10.80;102403.00;;;;5012691;28;20216;-75
2024/03/07 01:30:59;;;;;;;25.67;16.77;;;9.00;62.00;10.70;102398.00;;;;5013856;28;20208;-77
2024/03/07 01:33:26;;;;;;;27.10;17.92;;;9.00;62.10;10.70;102401.00;;;;5013484;28;20196;-76
2024/03/07 01:35:54;;;;;;;26.75;17.92;;;9.00;62.00;10.70;102406.00;;;;5011614;28;20263;-75
2024/03/07 01:38:22;;;;;;;27.50;17.90;;;9.00;62.00;10.70;102398.00;;;;5013097;28;20281;-76
2024/03/07 01:40:49;;;;;;;25.45;16.63;;;9.00;62.10;10.70;102388.00;;;;5011921;28;20308;-76
2024/03/07 01:43:16;;;;;;;27.90;18.63;;;8.90;62.00;10.70;102394.00;;;;5008642;28;20285;-76
2024/03/07 01:45:44;;;;;;;29.45;18.58;;;8.90;62.00;10.70;102383.00;;;;5011406;28;20678;-76
2024/03/07 01:48:15;;;;;;;27.92;18.23;;;8.90;62.10;10.60;102389.00;;;;5012628;28;20196;-76
2024/03/07 01:50:42;;;;;;;26.98;16.90;;;8.90;62.10;10.60;102392.00;;;;5010804;28;20207;-76
2024/03/07 01:53:12;;;;;;;25.13;16.35;;;8.90;62.20;10.60;102388.00;;;;5006954;28;20195;-76
2024/03/07 01:55:41;;;;;;;25.40;16.90;;;8.90;62.20;10.60;102383.00;;;;5012694;28;20225;-76
2024/03/07 01:58:13;;;;;;;25.20;17.38;;;8.90;62.20;10.60;102373.00;;;;5018376;28;20658;-75
2024/03/07 02:00:40;;;;;;;27.27;17.40;;;8.80;62.30;10.60;102381.00;;;;5018491;28;20193;-76
2024/03/07 02:03:07;;;;;;;27.48;16.33;;;8.80;62.40;10.60;102381.00;;;;5013351;28;20205;-74
2024/03/07 02:05:35;;;;;;;28.92;17.88;;;8.80;62.40;10.50;102372.00;;;;5012171;28;20195;-76
2024/03/07 02:08:03;;;;;;;31.20;17.83;;;8.80;62.60;10.60;102368.00;;;;5012878;28;20228;-76
2024/03/07 02:10:30;;;;;;;29.60;18.02;;;8.80;62.60;10.60;102370.00;;;;5012405;28;20304;-76
2024/03/07 02:13:00;;;;;;;29.98;18.35;;;8.80;62.70;10.60;102369.00;;;;5012664;28;20188;-75
2024/03/07 02:15:27;;;;;;;27.02;17.58;;;8.80;62.70;10.60;102366.00;;;;5021690;28;20295;-75
2024/03/07 02:17:55;;;;;;;29.13;16.67;;;8.80;62.80;10.60;102368.00;;;;5013317;28;20204;-76
2024/03/07 02:20:22;;;;;;;29.25;18.15;;;8.80;62.90;10.60;102376.00;;;;5012395;28;20205;-75
2024/03/07 02:22:51;;;;;;;23.25;16.08;;;8.90;63.00;10.60;102369.00;;;;4995130;28;20679;-75
2024/03/07 02:25:19;;;;;;;27.10;17.42;;;8.90;63.00;10.70;102371.00;;;;5012110;28;20193;-76
2024/03/07 02:27:46;;;;;;;31.27;18.23;;;8.90;63.00;10.70;102371.00;;;;5012939;28;20188;-75
2024/03/07 02:30:14;;;;;;;31.27;17.85;;;8.90;63.10;10.70;102375.00;;;;5011616;28;20225;-75
2024/03/07 02:32:42;;;;;;;29.50;18.52;;;8.90;63.20;10.70;102376.00;;;;5012552;28;20280;-76
2024/03/07 02:35:09;;;;;;;32.20;18.98;;;8.90;63.20;10.80;102382.00;;;;5011590;28;20197;-75
2024/03/07 02:37:36;;;;;;;28.67;18.48;;;8.90;63.20;10.80;102371.00;;;;5012155;28;20195;-75
2024/03/07 02:40:07;;;;;;;28.92;17.58;;;8.90;63.20;10.70;102366.00;;;;5012411;28;20211;-75
2024/03/07 02:42:35;;;;;;;26.80;17.45;;;9.00;63.20;10.80;102374.00;;;;5009573;28;20232;-75
2024/03/07 02:45:02;;;;;;;28.25;17.55;;;9.00;63.10;10.80;102366.00;;;;5009628;28;20207;-75
2024/03/07 02:47:29;;;;;;;27.20;18.25;;;9.00;63.00;10.70;102369.00;;;;5012072;28;20224;-75
2024/03/07 02:49:56;;;;;;;30.85;18.35;;;9.00;62.90;10.70;102368.00;;;;5011492;28;20228;-75
2024/03/07 02:52:23;;;;;;;27.52;17.88;;;9.00;62.80;10.60;102367.00;;;;5010522;28;20292;-74
2024/03/07 02:54:51;;;;;;;26.52;17.27;;;8.90;62.80;10.60;102359.00;;;;5012693;28;20718;-76
2024/03/07 02:57:19;;;;;;;31.95;18.65;;;8.90;62.70;10.60;102367.00;;;;5011420;28;20224;-75
2024/03/07 02:59:46;;;;;;;29.33;18.65;;;8.90;62.70;10.60;102364.00;;;;5009562;28;20284;-75
2024/03/07 03:02:13;;;;;;;28.67;17.38;;;8.90;62.70;10.60;102348.00;;;;5010855;28;20197;-74
2024/03/07 03:04:40;;;;;;;26.23;17.55;;;8.80;62.70;10.50;102355.00;;;;5011926;28;20280;-75
2024/03/07 03:07:08;;;;;;;29.60;18.95;;;8.80;62.70;10.50;102354.00;;;;5012488;28;20227;-74
2024/03/07 03:09:39;;;;;;;30.60;19.48;;;8.80;62.70;10.50;102346.00;;;;5008554;28;22114;-75
2024/03/07 03:12:08;;;;;;;29.85;18.17;;;8.70;62.70;10.40;102340.00;;;;5011294;28;20205;-76
2024/03/07 03:14:36;;;;;;;30.60;19.23;;;8.70;62.70;10.40;102333.00;;;;5011877;28;20216;-76
2024/03/07 03:17:04;;;;;;;32.97;19.45;;;8.70;62.80;10.40;102336.00;;;;5011392;28;20287;-75
2024/03/07 03:19:31;;;;;;;33.25;19.73;;;8.60;62.90;10.40;102337.00;;;;5009282;28;20688;-75
2024/03/07 03:21:58;;;;;;;27.75;18.48;;;8.60;62.90;10.30;102333.00;;;;5010247;28;20305;-75
2024/03/07 03:24:27;;;;;;;28.85;18.02;;;8.60;62.90;10.30;102332.00;;;;5012136;28;20283;-76
2024/03/07 03:26:54;;;;;;;30.85;18.80;;;8.60;63.00;10.30;102324.00;;;;5009800;28;20296;-75
2024/03/07 03:29:21;;;;;;;28.88;17.75;;;8.60;63.00;10.30;102341.00;;;;5002529;28;20217;-75
2024/03/07 03:31:50;;;;;;;29.33;18.88;;;8.50;62.90;10.20;102329.00;;;;5009632;28;20200;-75
2024/03/07 03:34:17;;;;;;;28.58;17.15;;;8.50;63.00;10.20;102326.00;;;;5011221;28;20782;-76
2024/03/07 03:36:44;;;;;;;28.73;18.52;;;8.50;63.10;10.20;102328.00;;;;5010459;28;20291;-76
2024/03/07 03:39:13;;;;;;;29.10;18.50;;;8.50;63.10;10.20;102319.00;;;;5011612;28;20205;-75
2024/03/07 03:41:40;;;;;;;27.38;17.63;;;8.50;63.10;10.20;102320.00;;;;5011323;28;20684;-75
2024/03/07 03:44:07;;;;;;;29.10;19.00;;;8.40;63.10;10.20;102316.00;;;;5011476;28;20284;-75
2024/03/07 03:46:34;;;;;;;29.80;18.27;;;8.40;63.10;10.20;102312.00;;;;5009281;28;20193;-76
2024/03/07 03:49:04;;;;;;;30.73;19.60;;;8.40;63.10;10.20;102315.00;;;;5011437;28;20292;-75
2024/03/07 03:51:31;;;;;;;32.08;19.45;;;8.40;63.30;10.10;102317.00;;;;5010558;28;20189;-76
2024/03/07 03:53:59;;;;;;;29.08;18.42;;;8.40;63.20;10.10;102303.00;;;;5011431;28;20276;-75
2024/03/07 03:56:26;;;;;;;37.17;19.33;;;8.40;63.20;10.10;102311.00;;;;5007455;28;20198;-75
2024/03/07 03:58:53;;;;;;;34.80;19.48;;;8.40;63.30;10.10;102303.00;;;;5007200;28;20201;-75
2024/03/07 04:01:20;;;;;;;29.98;18.17;;;8.30;63.30;10.10;102314.00;;;;5010282;28;20227;-75
2024/03/07 04:03:47;;;;;;;34.45;20.45;;;8.30;63.40;10.10;102311.00;;;;5010871;28;20283;-75
2024/03/07 04:06:16;;;;;;;32.95;20.15;;;8.30;63.40;10.00;102311.00;;;;5011257;28;20228;-75
2024/03/07 04:08:43;;;;;;;29.50;19.02;;;8.30;63.50;10.10;102303.00;;;;5010374;28;20296;-75
2024/03/07 04:11:10;;;;;;;31.02;20.35;;;8.30;63.50;10.00;102319.00;;;;5010427;28;20303;-77
2024/03/07 04:13:38;;;;;;;30.25;19.42;;;8.30;63.40;10.00;102306.00;;;;5011098;28;20197;-75
2024/03/07 04:16:05;;;;;;;32.58;18.63;;;8.30;63.50;10.00;102308.00;;;;5010984;28;20182;-75
2024/03/07 04:18:33;;;;;;;32.55;19.73;;;8.30;63.40;10.00;102303.00;;;;5011534;28;20197;-75
2024/03/07 04:21:00;;;;;;;32.58;20.45;;;8.30;63.50;10.00;102303.00;;;;5008795;28;20589;-75
2024/03/07 04:23:28;;;;;;;30.95;19.33;;;8.20;63.30;9.90;102309.00;;;;5008197;28;20217;-75
2024/03/07 04:25:56;;;;;;;31.95;19.60;;;8.20;63.30;9.90;102307.00;;;;5009535;28;20236;-76
2024/03/07 04:28:23;;;;;;;28.58;18.75;;;8.20;63.30;9.90;102303.00;;;;5009035;28;20197;-74
2024/03/07 04:30:53;;;;;;;32.50;19.33;;;8.10;63.20;9.80;102310.00;;;;5010441;28;20644;-76
2024/03/07 04:33:20;;;;;;;31.48;19.45;;;8.10;63.20;9.80;102310.00;;;;5010956;28;20667;-74
2024/03/07 04:35:47;;;;;;;32.05;19.65;;;8.10;63.30;9.80;102307.00;;;;5013837;28;20208;-75
2024/03/07 04:38:14;;;;;;;31.52;18.25;;;8.10;63.40;9.80;102312.00;;;;5013228;28;20283;-75
2024/03/07 04:40:44;;;;;;;33.90;18.90;;;8.00;63.40;9.70;102302.00;;;;5014280;28;20260;-75
2024/03/07 04:43:11;;;;;;;27.42;17.95;;;8.00;63.30;9.70;102310.00;;;;5012354;28;20649;-74
2024/03/07 04:45:39;;;;;;;29.63;18.05;;;8.00;63.40;9.70;102305.00;;;;5014326;28;20276;-77
2024/03/07 04:48:08;;;;;;;26.90;17.88;;;8.00;63.50;9.70;102298.00;;;;5013607;28;20293;-75
2024/03/07 04:50:35;;;;;;;32.97;19.35;;;7.90;63.40;9.70;102301.00;;;;5014457;28;20252;-76
2024/03/07 04:53:02;;;;;;;30.25;18.80;;;8.00;63.60;9.70;102301.00;;;;5014290;28;20282;-75
2024/03/07 04:55:30;;;;;;;29.63;18.10;;;8.00;63.60;9.60;102308.00;;;;5013732;28;20647;-75
2024/03/07 04:57:58;;;;;;;26.85;17.48;;;7.90;63.50;9.60;102298.00;;;;5009760;28;20201;-75
2024/03/07 05:00:26;;;;;;;30.42;18.35;;;7.90;63.60;9.60;102309.00;;;;5014356;28;20263;-75
2024/03/07 05:02:53;;;;;;;29.63;18.73;;;7.90;63.60;9.60;102304.00;;;;5014127;28;20662;-75
2024/03/07 05:05:25;;;;;;;34.22;20.02;;;7.90;63.70;9.60;102304.00;;;;5010439;28;20224;-75
2024/03/07 05:07:52;;;;;;;31.10;19.25;;;7.90;63.70;9.60;102300.00;;;;5013894;28;20213;-75
2024/03/07 05:10:20;;;;;;;30.45;18.10;;;7.90;63.60;9.60;102303.00;;;;5012771;28;20229;-75
2024/03/07 05:12:47;;;;;;;26.90;18.48;;;7.80;63.60;9.60;102300.00;;;;5013761;28;20278;-75
2024/03/07 05:15:15;;;;;;;31.77;19.63;;;7.80;63.80;9.50;102304.00;;;;5005552;28;20680;-75
2024/03/07 05:17:43;;;;;;;30.77;18.88;;;7.80;63.80;9.50;102306.00;;;;5012416;28;20204;-75
2024/03/07 05:20:12;;;;;;;29.83;20.02;;;7.80;63.80;9.50;102306.00;;;;5013463;28;20280;-75
2024/03/07 05:22:40;;;;;;;30.58;19.75;;;7.80;63.80;9.50;102303.00;;;;5012431;28;20632;-74
2024/03/07 05:25:09;;;;;;;27.05;17.25;;;7.80;63.80;9.50;102310.00;;;;5013749;28;20730;-75
2024/03/07 05:27:36;;;;;;;29.75;19.23;;;7.80;63.90;9.50;102303.00;;;;5013350;28;20610;-74
2024/03/07 05:30:05;;;;;;;31.27;18.60;;;7.70;63.70;9.50;102304.00;;;;5011593;28;20220;-76
2024/03/07 05:32:34;;;;;;;30.05;18.70;;;7.70;63.70;9.40;102303.00;;;;5011425;28;20201;-75
2024/03/07 05:35:01;;;;;;;32.25;19.73;;;7.70;63.70;9.50;102313.00;;;;5011819;28;20458;-75
2024/03/07 05:37:28;;;;;;;30.88;19.10;;;7.70;63.80;9.40;102310.00;;;;5010280;28;20244;-75
2024/03/07 05:39:56;;;;;;;32.28;19.38;;;7.70;63.90;9.40;102308.00;;;;5014605;28;20200;-74
2024/03/07 05:42:25;;;;;;;33.13;20.77;;;7.70;63.90;9.40;102299.00;;;;5009535;28;20217;-75
2024/03/07 05:44:53;;;;;;;30.42;18.77;;;7.70;64.00;9.40;102301.00;;;;5011900;28;20670;-75
2024/03/07 05:47:21;;;;;;;33.28;19.98;;;7.70;64.00;9.40;102305.00;;;;5012271;28;20197;-74
2024/03/07 05:49:50;;;;;;;36.75;20.02;;;7.70;64.00;9.40;102305.00;;;;5005114;28;20221;-74
2024/03/07 05:52:18;;;;;;;32.22;19.38;;;7.70;64.00;9.40;102301.00;;;;5012630;28;20204;-76
2024/03/07 05:54:45;;;;;;;33.92;20.75;;;7.70;64.00;9.40;102302.00;;;;5013697;28;20223;-75
2024/03/07 05:57:12;;;;;;;29.60;19.15;;;7.60;63.90;9.40;102301.00;;;;5013345;28;20200;-75
2024/03/07 05:59:39;;;;;;;32.08;19.90;;;7.60;63.90;9.40;102304.00;;;;5013247;28;20641;-75
2024/03/07 06:02:07;;;;;;;26.45;17.95;;;7.60;64.70;9.40;102296.00;;;;5008311;28;20217;-75
2024/03/07 06:04:34;;;;;;;31.98;20.05;;;7.60;64.10;9.40;102308.00;;;;5007221;28;20247;-75
2024/03/07 06:07:03;;;;;;;33.75;21.23;;;7.60;64.20;9.30;102300.00;;;;5009400;28;20662;-75
2024/03/07 06:09:30;;;;;;;34.90;20.38;;;7.60;65.00;9.30;102305.00;;;;5010968;28;20687;-75
2024/03/07 06:11:57;;;;;;;32.33;20.25;;;7.60;64.30;9.40;102299.00;;;;5006121;28;20288;-74
2024/03/07 06:14:24;;;;;;;30.13;19.30;;;7.60;64.40;9.40;102309.00;;;;5012362;28;20671;-75
2024/03/07 06:16:52;;;;;;;33.30;20.73;;;7.60;64.40;9.40;102302.00;;;;5006897;28;20284;-76
2024/03/07 06:19:20;;;;;;;31.00;18.65;;;7.60;64.30;9.30;102311.00;;;;5005193;28;20220;-75
2024/03/07 06:21:48;;;;;;;29.67;19.92;;;7.60;64.20;9.30;102310.00;;;;5011550;28;20728;-75
2024/03/07 06:24:18;;;;;;;32.45;20.52;;;7.60;64.20;9.30;102309.00;;;;5001170;28;20216;-76
2024/03/07 06:26:59;;;;;;;32.00;19.83;;;7.60;64.20;9.40;102309.00;;;;5003332;28;20193;-76
2024/03/07 06:29:28;;;;;;;31.27;19.33;;;7.60;64.20;9.40;102306.00;;;;5012181;28;20211;-75
2024/03/07 06:31:57;;;;;;;28.73;19.52;;;7.60;64.20;9.30;102312.00;;;;5008833;28;20255;-75
2024/03/07 06:34:24;;;;;;;31.17;19.98;;;7.60;64.10;9.30;102310.00;;;;5011430;28;20721;-76
2024/03/07 06:36:51;;;;;;;34.65;20.00;;;7.60;64.10;9.30;102310.00;;;;5005521;28;20279;-76
2024/03/07 06:39:21;;;;;;;31.92;20.45;;;7.60;64.20;9.30;102307.00;;;;4999887;28;20189;-74
2024/03/07 06:41:48;;;;;;;33.05;19.50;;;7.60;64.10;9.30;102307.00;;;;5010269;28;20235;-77
2024/03/07 06:44:17;;;;;;;32.33;20.85;;;7.60;64.10;9.30;102308.00;;;;5011949;28;20201;-76
2024/03/07 06:46:45;;;;;;;35.58;20.65;;;7.60;64.10;9.30;102311.00;;;;5009594;28;20201;-75
2024/03/07 06:49:13;;;;;;;32.80;20.23;;;7.50;64.10;9.30;102314.00;;;;5008749;28;20745;-75
2024/03/07 06:51:40;;;;;;;30.13;19.05;;;7.50;64.10;9.30;102312.00;;;;5004306;28;20229;-74
2024/03/07 06:54:07;;;;;;;30.83;19.52;;;7.60;64.20;9.40;102324.00;;;;5011430;28;20203;-75
2024/03/07 06:56:36;;;;;;;31.98;17.98;;;7.50;64.20;9.30;102310.00;;;;5011313;28;20280;-75
2024/03/07 06:59:04;;;;;;;30.30;18.48;;;7.60;64.20;9.40;102319.00;;;;5012042;28;20203;-73
2024/03/07 07:01:33;;;;;;;32.95;20.60;;;7.60;64.30;9.40;102315.00;;;;5010222;28;20292;-74
2024/03/07 07:04:03;;;;;;;31.02;18.73;;;7.60;64.30;9.40;102312.00;;;;5011045;28;20208;-74
2024/03/07 07:06:31;;;;;;;29.05;19.70;;;7.60;64.20;9.40;102307.00;;;;5010879;28;20200;-73
2024/03/07 07:09:02;;;;;;;31.83;20.40;;;7.60;64.30;9.40;102299.00;;;;5008298;28;20221;-73
2024/03/07 07:11:30;;;;;;;33.28;20.60;;;7.60;64.30;9.40;102306.00;;;;5008479;28;20228;-72
2024/03/07 07:13:58;;;;;;;29.40;18.08;;;7.60;64.40;9.50;102302.00;;;;5011290;28;20197;-73
2024/03/07 07:16:25;;;;;;;30.27;19.65;;;7.60;64.40;9.50;102308.00;;;;5012436;28;20689;-74
2024/03/07 07:18:52;;;;;;;31.90;19.50;;;7.60;64.30;9.50;102311.00;;;;5010546;28;20197;-74
2024/03/07 07:21:21;;;;;;;32.08;18.85;;;7.60;64.40;9.50;102303.00;;;;5011824;28;20677;-73
2024/03/07 07:23:48;;;;;;;29.52;18.35;;;7.70;64.40;9.60;102305.00;;;;5011336;28;20197;-73
2024/03/07 07:26:15;;;;;;;31.30;19.70;;;7.70;64.50;9.60;102305.00;;;;5011873;28;20201;-73
2024/03/07 07:28:42;;;;;;;30.35;18.88;;;7.70;64.40;9.60;102305.00;;;;5011997;28;20285;-72
2024/03/07 07:31:10;;;;;;;28.33;19.10;;;7.70;64.40;9.70;102304.00;;;;5012398;28;20279;-73
2024/03/07 07:33:37;;;;;;;31.90;19.35;;;7.70;64.40;9.70;102300.00;;;;5010863;28;20191;-74
2024/03/07 07:36:05;;;;;;;29.27;18.83;;;7.80;64.40;9.70;102302.00;;;;5011777;28;20201;-73
2024/03/07 07:38:32;;;;;;;30.50;19.48;;;7.80;64.40;9.70;102303.00;;;;5010524;28;20291;-73
2024/03/07 07:41:01;;;;;;;28.05;18.60;;;7.80;64.40;9.80;102299.00;;;;5005925;28;20282;-72
2024/03/07 07:43:28;;;;;;;28.38;17.88;;;7.80;64.40;9.80;102289.00;;;;5008148;28;20237;-73
2024/03/07 07:45:55;;;;;;;28.38;18.20;;;7.90;64.40;9.80;102296.00;;;;5006164;28;20204;-73
2024/03/07 07:48:24;;;;;;;25.85;17.33;;;7.90;64.40;9.90;102300.00;;;;5011376;28;20221;-74
2024/03/07 07:50:52;;;;;;;24.33;16.02;;;7.90;64.40;9.90;102296.00;;;;5010023;28;20307;-73
2024/03/07 07:53:19;;;;;;;26.42;16.75;;;8.00;64.40;9.90;102299.00;;;;5011787;28;20188;-73
2024/03/07 07:55:46;;;;;;;23.75;16.58;;;8.00;64.40;10.00;102295.00;;;;5005065;28;20304;-73
2024/03/07 07:58:13;;;;;;;26.05;18.00;;;8.10;64.40;10.10;102290.00;;;;5004167;28;20566;-73
2024/03/07 08:00:43;;;;;;;27.02;17.60;;;8.10;64.40;10.10;102298.00;;;;5007005;28;20276;-73
2024/03/07 08:03:11;;;;;;;23.88;15.95;;;8.20;64.50;10.20;102296.00;;;;5010387;28;20201;-74
2024/03/07 08:05:40;;;;;;;26.30;16.85;;;8.20;64.40;10.20;102298.00;;;;5011149;28;20291;-72
2024/03/07 08:08:11;;;;;;;26.20;16.80;;;8.30;64.40;10.20;102294.00;;;;5006608;28;20311;-73
2024/03/07 08:10:40;;;;;;;24.23;16.30;;;8.30;64.30;10.30;102293.00;;;;5013568;28;20228;-74
2024/03/07 08:13:10;;;;;;;26.65;17.73;;;8.40;64.20;10.30;102293.00;;;;5015745;28;20616;-73
2024/03/07 08:15:37;;;;;;;24.70;17.75;;;8.40;64.10;10.30;102290.00;;;;5015201;28;20227;-74
2024/03/07 08:18:08;;;;;;;23.50;16.45;;;8.50;64.20;10.40;102292.00;;;;5014374;28;20259;-74
2024/03/07 08:20:36;;;;;;;24.00;15.68;;;8.50;64.10;10.40;102291.00;;;;5014535;28;20280;-75
2024/03/07 08:23:05;;;;;;;21.83;15.07;;;8.60;64.10;10.50;102292.00;;;;5014948;28;20283;-76
2024/03/07 08:25:32;;;;;;;25.85;16.17;;;8.60;64.10;10.50;102289.00;;;;5015161;28;20251;-74
2024/03/07 08:27:59;;;;;;;22.77;15.85;;;8.70;64.10;10.50;102293.00;;;;5012729;28;20205;-73
2024/03/07 08:30:28;;;;;;;24.92;15.90;;;8.70;64.00;10.60;102301.00;;;;5020937;28;20722;-74
2024/03/07 08:32:58;;;;;;;25.38;15.80;;;8.80;64.00;10.60;102291.00;;;;5015013;28;20193;-76
2024/03/07 08:35:26;;;;;;;23.77;15.20;;;8.80;64.00;10.70;102301.00;;;;5014990;28;20573;-74
2024/03/07 08:37:55;;;;;;;22.88;15.60;;;8.80;64.00;10.80;102297.00;;;;5008729;28;20296;-75
2024/03/07 08:40:26;;;;;;;22.40;15.80;;;8.90;64.00;10.80;102291.00;;;;5014730;28;20288;-73
2024/03/07 08:42:55;;;;;;;22.88;15.02;;;9.00;64.00;10.90;102300.00;;;;4999279;28;20678;-75
2024/03/07 08:45:23;;;;;;;21.38;14.57;;;9.00;63.80;10.90;102292.00;;;;5015275;28;20239;-72
2024/03/07 08:47:54;;;;;;;21.58;15.38;;;9.10;63.90;11.00;102293.00;;;;5016962;28;20666;-75
2024/03/07 08:50:21;;;;;;;21.77;15.07;;;9.20;63.90;11.10;102291.00;;;;5015120;28;20211;-74
2024/03/07 08:52:50;;;;;;;22.23;14.82;;;9.20;63.80;11.10;102286.00;;;;5014370;28;20280;-74
2024/03/07 08:55:20;;;;;;;20.60;15.02;;;9.30;63.70;11.20;102293.00;;;;5014236;28;20296;-74
2024/03/07 08:57:49;;;;;;;20.88;15.00;;;9.40;63.60;11.30;102291.00;;;;5013184;28;20195;-75
2024/03/07 09:00:23;;;;;;;19.25;14.55;;;9.40;63.40;11.30;102286.00;;;;5014314;28;20204;-75
2024/03/07 09:02:52;;;;;;;17.85;13.35;;;9.50;64.00;11.50;102292.00;;;;5017416;28;20231;-77
2024/03/07 09:05:21;;;;;;;21.50;14.77;;;9.60;63.30;11.50;102291.00;;;;5034365;28;20196;-76
2024/03/07 09:07:49;;;;;;;18.38;13.73;;;9.70;63.90;11.60;102295.00;;;;5017749;28;20707;-76
2024/03/07 09:10:17;;;;;;;17.27;13.15;;;9.70;62.90;11.70;102287.00;;;;5013901;28;20197;-76
2024/03/07 09:12:45;;;;;;;16.45;12.30;;;9.80;62.80;11.70;102288.00;;;;5013794;28;20221;-75
2024/03/07 09:15:16;;;;;;;17.00;13.38;;;9.90;62.70;11.80;102290.00;;;;5013473;28;20288;-76
2024/03/07 09:17:43;;;;;;;16.67;12.50;;;10.00;62.70;11.90;102271.00;;;;5006992;28;20659;-74
2024/03/07 09:20:14;;;;;;;17.20;12.52;;;10.10;62.40;11.90;102286.00;;;;5014518;28;21966;-76
2024/03/07 09:22:42;;;;;;;17.73;12.18;;;10.10;62.20;12.00;102277.00;;;;5010425;28;20200;-74
2024/03/07 09:25:12;;;;;;;17.77;13.23;;;10.20;62.20;12.10;102276.00;;;;5012349;28;20208;-73
2024/03/07 09:27:40;;;;;;;16.40;12.18;;;10.30;61.90;12.10;102271.00;;;;5006120;28;20234;-74
2024/03/07 09:30:11;;;;;;;17.45;12.90;;;10.30;61.60;12.20;102264.00;;;;4999581;28;20200;-72
2024/03/07 09:32:40;;;;;;;17.95;13.02;;;10.40;61.60;12.30;102272.00;;;;5012973;28;20312;-73
2024/03/07 09:35:11;;;;;;;15.02;11.38;;;10.50;61.60;12.40;102281.00;;;;4994986;28;20714;-73
2024/03/07 09:37:41;;;;;;;18.15;12.75;;;10.60;61.50;12.40;102275.00;;;;5003930;28;20206;-74
2024/03/07 09:40:11;;;;;;;18.15;13.80;;;10.70;61.40;12.50;102262.00;;;;5011512;28;20200;-75
2024/03/07 09:42:45;;;;;;;16.52;11.02;;;10.70;61.20;12.50;102263.00;;;;5002932;28;20201;-74
2024/03/07 09:45:17;;;;;;;17.15;12.32;;;10.80;61.00;12.60;102263.00;;;;5014117;28;20242;-76
2024/03/07 09:47:49;;;;;;;17.80;12.50;;;10.90;60.90;12.70;102258.00;;;;5011515;28;20240;-74
2024/03/07 09:50:19;;;;;;;15.52;11.75;;;10.90;60.60;12.80;102258.00;;;;5013719;28;20201;-75
2024/03/07 09:52:49;;;;;;;15.38;11.48;;;11.00;60.50;12.80;102269.00;;;;5013422;28;20221;-76
2024/03/07 09:55:17;;;;;;;16.98;12.40;;;11.10;60.60;12.90;102259.00;;;;5028623;28;20205;-74
2024/03/07 09:57:46;;;;;;;15.57;12.15;;;11.20;60.40;13.00;102265.00;;;;5021335;28;20225;-76
2024/03/07 10:00:22;;;;;;;15.52;11.73;;;11.20;60.20;13.00;102268.00;;;;4999982;28;20224;-75
2024/03/07 10:02:56;;;;;;;14.55;11.13;;;11.30;60.00;13.10;102254.00;;;;5004219;28;20203;-76
2024/03/07 10:05:27;;;;;;;15.75;11.60;;;11.40;59.90;13.20;102259.00;;;;5013542;28;20228;-74
2024/03/07 10:07:54;;;;;;;17.02;11.35;;;11.50;59.80;13.30;102259.00;;;;5012461;28;20303;-76
2024/03/07 10:10:22;;;;;;;15.82;11.98;;;11.50;59.70;13.40;102259.00;;;;5013509;28;20193;-74
2024/03/07 10:12:50;;;;;;;14.57;11.02;;;11.60;59.50;13.40;102254.00;;;;5007206;28;20328;-74
2024/03/07 10:15:17;;;;;;;13.30;10.30;;;11.70;59.30;13.50;102251.00;;;;5010665;28;20201;-75
2024/03/07 10:17:45;;;;;;;17.45;11.85;;;11.80;59.20;13.60;102252.00;;;;5008985;28;20197;-74
2024/03/07 10:20:20;;;;;;;14.77;10.63;;;11.90;59.20;13.60;102247.00;;;;4998409;28;20205;-77
2024/03/07 10:22:48;;;;;;;13.35;10.35;;;11.90;59.00;13.80;102248.00;;;;5004192;28;20224;-76
2024/03/07 10:25:19;;;;;;;16.02;11.23;;;12.10;59.00;13.90;102249.00;;;;5012686;28;20259;-76
2024/03/07 10:27:49;;;;;;;14.05;10.18;;;12.10;58.70;14.00;102235.00;;;;5015645;28;20216;-74
2024/03/07 10:30:20;;;;;;;15.88;10.82;;;12.20;58.60;14.00;102241.00;;;;5010817;28;20197;-75
2024/03/07 10:32:47;;;;;;;15.50;11.20;;;12.30;58.20;14.10;102230.00;;;;5012205;28;20221;-75
2024/03/07 10:35:21;;;;;;;14.77;10.50;;;12.40;57.90;14.10;102232.00;;;;5011472;28;20276;-75
2024/03/07 10:37:48;;;;;;;16.65;10.73;;;12.40;57.70;14.20;102208.00;;;;5011302;28;20538;-77
2024/03/07 10:40:17;;;;;;;14.88;10.93;;;12.50;57.80;14.30;102214.00;;;;5008112;28;20193;-75
2024/03/07 10:42:51;;;;;;;14.60;10.38;;;12.60;57.60;14.40;102208.00;;;;5012261;28;20669;-75
2024/03/07 10:45:21;;;;;;;13.82;9.90;;;12.70;57.70;14.50;102207.00;;;;5010393;28;20193;-76